Time;durP1;ratioP1;P1;durP2;ratioP2;P2;SDS_P1;SDS_P2;PMS_P1;PMS_P2;Temp;Humidity;BMP_temperature;BMP_pressure;BME280_temperature;BME280_humidity;BME280_pressure;Samples;Min_cycle;Max_cycle;Signal;HPM_P1;HPM_P2
2023/03/14 00:00:52;;;;;;;22.38;5.00;;;;;;;10.58;100.00;98691.19;4879470;29;20041;-88
2023/03/14 00:03:18;;;;;;;16.20;5.30;;;;;;;10.56;100.00;98690.81;4861359;29;20037;-89
2023/03/14 00:05:43;;;;;;;24.88;6.43;;;;;;;10.60;100.00;98683.13;4866309;29;20071;-89
2023/03/14 00:08:09;;;;;;;18.25;5.38;;;;;;;10.53;100.00;98706.47;4848409;29;20096;-90
2023/03/14 00:10:36;;;;;;;17.90;4.88;;;;;;;10.55;100.00;98703.25;4868018;29;20029;-88
2023/03/14 00:13:02;;;;;;;24.13;5.32;;;;;;;10.38;100.00;98694.78;4865456;29;20025;-85
2023/03/14 00:15:27;;;;;;;22.67;6.53;;;;;;;10.26;100.00;98692.59;4866497;29;20032;-88
2023/03/14 00:17:52;;;;;;;23.05;6.43;;;;;;;10.13;100.00;98692.44;4851723;29;20028;-89
2023/03/14 00:20:18;;;;;;;20.23;6.35;;;;;;;10.16;100.00;98710.34;4854371;29;20037;-86
2023/03/14 00:22:43;;;;;;;15.57;6.10;;;;;;;10.07;100.00;98701.75;4867478;29;20033;-86
2023/03/14 00:25:11;;;;;;;16.38;5.57;;;;;;;10.03;100.00;98699.00;4850407;29;20524;-87
2023/03/14 00:27:36;;;;;;;27.67;8.32;;;;;;;9.98;100.00;98682.75;4868597;29;20035;-87
2023/03/14 00:30:02;;;;;;;21.30;8.57;;;;;;;9.96;100.00;98688.75;4865872;29;20041;-85
2023/03/14 00:32:28;;;;;;;19.55;5.50;;;;;;;9.90;100.00;98687.66;4858166;29;20029;-84
2023/03/14 00:34:53;;;;;;;19.77;5.35;;;;;;;9.88;100.00;98687.31;4864356;29;20040;-88
2023/03/14 00:37:19;;;;;;;16.77;6.47;;;;;;;9.87;100.00;98691.31;4849083;29;20040;-88
2023/03/14 00:39:44;;;;;;;23.80;7.60;;;;;;;9.92;100.00;98685.22;4863834;29;20033;-87
2023/03/14 00:42:09;;;;;;;23.60;5.82;;;;;;;9.88;100.00;98673.31;4861598;29;20072;-88
2023/03/14 00:44:35;;;;;;;17.17;6.28;;;;;;;9.87;100.00;98685.72;4864485;29;20116;-88
2023/03/14 00:47:00;;;;;;;22.35;6.13;;;;;;;9.83;100.00;98687.81;4863758;29;20312;-86
2023/03/14 00:49:25;;;;;;;16.58;5.53;;;;;;;9.74;100.00;98684.78;4866676;29;20463;-88
2023/03/14 00:51:51;;;;;;;20.20;4.97;;;;;;;9.87;100.00;98696.13;4849628;29;20040;-86
2023/03/14 00:54:18;;;;;;;17.55;4.68;;;;;;;9.84;100.00;98700.53;4851405;29;20127;-89
2023/03/14 00:56:43;;;;;;;16.70;5.43;;;;;;;9.83;100.00;98692.59;4867109;29;20036;-89
2023/03/14 00:59:08;;;;;;;20.50;4.93;;;;;;;9.87;100.00;98696.91;4848645;29;20478;-86
2023/03/14 01:01:34;;;;;;;17.77;6.13;;;;;;;9.89;100.00;98691.69;4864047;29;20689;-89
2023/03/14 01:03:59;;;;;;;17.35;5.30;;;;;;;9.87;100.00;98682.16;4864101;29;20060;-90
2023/03/14 01:06:27;;;;;;;19.45;5.35;;;;;;;9.85;100.00;98679.78;4869100;29;20043;-89
2023/03/14 01:08:54;;;;;;;24.80;5.75;;;;;;;9.85;100.00;98684.59;4884673;29;20036;-89
2023/03/14 01:11:31;;;;;;;15.43;5.22;;;;;;;9.81;100.00;98681.84;4879629;29;20290;-89
2023/03/14 01:13:57;;;;;;;24.58;6.35;;;;;;;9.81;100.00;98683.84;4876944;29;20076;-90
2023/03/14 01:16:26;;;;;;;26.40;6.03;;;;;;;9.78;100.00;98679.91;4862230;29;20127;-88
2023/03/14 01:18:51;;;;;;;15.98;5.50;;;;;;;9.71;100.00;98675.22;4881012;29;20096;-87
2023/03/14 01:21:20;;;;;;;19.55;6.88;;;;;;;9.73;100.00;98678.38;4877655;29;20497;-90
2023/03/14 01:23:47;;;;;;;20.67;5.10;;;;;;;9.75;100.00;98675.16;4879561;29;20029;-89
2023/03/14 01:26:16;;;;;;;13.30;4.65;;;;;;;9.74;100.00;98687.56;4879335;29;20033;-86
2023/03/14 01:28:41;;;;;;;21.17;4.20;;;;;;;9.71;100.00;98686.41;4860846;29;20105;-91
2023/03/14 01:31:09;;;;;;;16.10;4.97;;;;;;;9.75;100.00;98697.53;4872952;29;20495;-87
2023/03/14 01:33:35;;;;;;;18.27;6.38;;;;;;;9.76;100.00;98688.72;4860080;29;20080;-88
2023/03/14 01:36:04;;;;;;;25.40;6.30;;;;;;;9.79;100.00;98686.28;4878712;29;20445;-87
2023/03/14 01:38:31;;;;;;;25.80;5.65;;;;;;;9.75;100.00;98689.91;4861331;29;20886;-88
2023/03/14 01:40:57;;;;;;;25.17;4.75;;;;;;;9.80;100.00;98683.06;4876481;29;20040;-88
2023/03/14 01:43:26;;;;;;;15.05;3.80;;;;;;;9.72;100.00;98671.22;4873664;29;20756;-87
2023/03/14 01:45:58;;;;;;;20.02;5.22;;;;;;;9.75;100.00;98680.75;4861842;29;20024;-88
2023/03/14 01:48:31;;;;;;;17.90;6.07;;;;;;;9.75;100.00;98670.38;4876119;29;20036;-89
2023/03/14 01:50:58;;;;;;;19.38;5.13;;;;;;;9.70;100.00;98664.50;4875815;29;20770;-88
2023/03/14 01:53:23;;;;;;;14.15;5.10;;;;;;;9.67;100.00;98663.31;4859826;29;20037;-90
2023/03/14 01:55:52;;;;;;;21.50;4.38;;;;;;;9.67;100.00;98665.34;4877761;29;20508;-88
2023/03/14 01:58:19;;;;;;;14.43;4.28;;;;;;;9.71;100.00;98672.44;4859862;29;20067;-86
2023/03/14 02:00:45;;;;;;;17.00;4.57;;;;;;;9.71;100.00;98666.06;4880391;29;20493;-87
2023/03/14 02:03:16;;;;;;;22.42;4.45;;;;;;;9.69;100.00;98671.28;4874311;29;20049;-89
2023/03/14 02:05:42;;;;;;;12.02;3.80;;;;;;;9.65;100.00;98676.94;4861922;29;20028;-89
2023/03/14 02:08:13;;;;;;;15.50;4.25;;;;;;;9.64;100.00;98664.19;4865293;29;20037;-90
2023/03/14 02:10:42;;;;;;;14.38;3.78;;;;;;;9.63;100.00;98668.19;4878807;29;20096;-90
2023/03/14 02:13:10;;;;;;;9.25;3.85;;;;;;;9.64;100.00;98664.19;4863145;29;20093;-90
2023/03/14 02:15:36;;;;;;;12.82;3.83;;;;;;;9.57;100.00;98676.28;4862295;29;20359;-88
2023/03/14 02:18:02;;;;;;;17.33;3.33;;;;;;;9.55;100.00;98670.31;4874615;29;20033;-90
2023/03/14 02:20:33;;;;;;;8.82;3.15;;;;;;;9.51;100.00;98675.19;4881013;29;20552;-88
2023/03/14 02:22:59;;;;;;;13.43;3.70;;;;;;;9.44;100.00;98672.50;4870718;29;20076;-89
2023/03/14 02:25:38;;;;;;;17.17;5.35;;;;;;;9.27;100.00;98670.78;4874656;29;20040;-86
2023/03/14 02:28:04;;;;;;;14.32;4.00;;;;;;;9.21;100.00;98666.88;4873349;29;20028;-91
2023/03/14 02:30:31;;;;;;;11.65;5.07;;;;;;;9.24;100.00;98669.63;4860087;29;20629;-88
2023/03/14 02:33:06;;;;;;;12.23;3.90;;;;;;;9.09;100.00;98657.91;4873776;29;20111;-86
2023/03/14 02:35:44;;;;;;;14.00;4.93;;;;;;;9.13;100.00;98652.28;4856970;29;20200;-86
2023/03/14 02:38:28;;;;;;;14.88;4.10;;;;;;;9.11;100.00;98654.69;4869107;29;20765;-87
2023/03/14 02:40:54;;;;;;;12.65;3.67;;;;;;;9.12;100.00;98656.25;4870623;29;20036;-87
2023/03/14 02:43:20;;;;;;;14.77;4.68;;;;;;;9.07;100.00;98651.94;4872622;29;20184;-86
2023/03/14 02:45:47;;;;;;;13.27;4.60;;;;;;;8.95;100.00;98646.94;4874211;29;20087;-89
2023/03/14 02:48:28;;;;;;;11.57;3.85;;;;;;;8.99;100.00;98639.31;4872133;29;20040;-87
2023/03/14 02:50:59;;;;;;;15.95;4.32;;;;;;;8.99;100.00;98639.31;4859565;29;20129;-90
2023/03/14 02:53:33;;;;;;;11.38;4.30;;;;;;;8.93;100.00;98633.41;4860288;29;20462;-90
2023/03/14 02:56:00;;;;;;;10.60;3.67;;;;;;;9.04;100.00;98632.47;4871425;29;20390;-91
2023/03/14 02:58:28;;;;;;;11.77;4.38;;;;;;;8.97;100.00;98632.59;4860825;29;20056;-87
2023/03/14 03:00:53;;;;;;;13.50;4.25;;;;;;;8.91;100.00;98626.69;4872309;29;20489;-86
2023/03/14 03:03:18;;;;;;;13.70;4.28;;;;;;;9.02;100.00;98626.50;4865734;29;20052;-86
2023/03/14 03:05:52;;;;;;;11.77;4.55;;;;;;;8.95;100.00;98630.22;4854169;29;20563;-90
2023/03/14 03:08:18;;;;;;;;;;;;;;;8.99;100.00;98644.91;4839966;29;20363;-88
2023/03/14 03:10:44;;;;;;;13.93;4.65;;;;;;;9.02;100.00;98635.66;4834643;29;19931;-85
2023/03/14 03:13:09;;;;;;;11.82;3.78;;;;;;;9.03;100.00;98631.69;4834350;29;20286;-88
2023/03/14 03:15:34;;;;;;;24.58;4.40;;;;;;;9.01;100.00;98628.53;4850503;29;20036;-87
2023/03/14 03:18:00;;;;;;;20.33;4.00;;;;;;;8.98;100.00;98629.38;4851754;29;20545;-91
2023/03/14 03:20:25;;;;;;;16.75;4.07;;;;;;;9.01;100.00;98627.75;4836429;29;20179;-86
2023/03/14 03:22:51;;;;;;;14.85;4.60;;;;;;;8.98;100.00;98634.97;4839080;29;20037;-89
2023/03/14 03:25:16;;;;;;;20.38;4.15;;;;;;;8.95;100.00;98627.41;4851376;29;20036;-90
2023/03/14 03:27:42;;;;;;;16.05;4.45;;;;;;;8.94;100.00;98634.22;4852599;29;20080;-90
2023/03/14 03:30:08;;;;;;;11.10;3.53;;;;;;;8.95;100.00;98633.00;4850683;29;20069;-90
2023/03/14 03:32:34;;;;;;;9.50;3.50;;;;;;;8.97;100.00;98630.56;4837067;29;20657;-89
2023/03/14 03:34:59;;;;;;;13.30;3.28;;;;;;;8.96;100.00;98623.44;4850188;29;20077;-87
2023/03/14 03:37:24;;;;;;;10.48;3.47;;;;;;;8.93;100.00;98624.25;4853346;29;20041;-88
2023/03/14 03:39:51;;;;;;;11.48;3.83;;;;;;;8.94;100.00;98625.84;4834499;29;20039;-89
2023/03/14 03:42:17;;;;;;;14.75;3.53;;;;;;;8.97;100.00;98613.84;4858066;29;20489;-88
2023/03/14 03:44:42;;;;;;;10.25;3.50;;;;;;;8.92;100.00;98611.53;4854233;29;20037;-90
2023/03/14 03:47:08;;;;;;;12.93;3.95;;;;;;;8.91;100.00;98623.88;4856789;29;20145;-88
2023/03/14 03:49:33;;;;;;;10.82;3.60;;;;;;;8.95;100.00;98627.41;4836020;29;20580;-85
2023/03/14 03:51:59;;;;;;;13.70;3.78;;;;;;;8.90;100.00;98619.53;4856426;29;20128;-88
2023/03/14 03:54:25;;;;;;;15.93;4.25;;;;;;;8.93;100.00;98621.47;4835928;29;21839;-86
2023/03/14 03:56:51;;;;;;;13.93;5.07;;;;;;;8.99;100.00;98625.38;4851830;29;20556;-86
2023/03/14 03:59:16;;;;;;;11.38;5.63;;;;;;;8.93;100.00;98627.06;4857084;29;20682;-88
2023/03/14 04:01:41;;;;;;;11.63;4.63;;;;;;;8.96;100.00;98620.63;4855166;29;20172;-90
2023/03/14 04:04:07;;;;;;;12.10;4.78;;;;;;;8.94;100.00;98623.84;4871748;29;20048;-86
2023/03/14 04:06:32;;;;;;;13.55;5.45;;;;;;;8.93;100.00;98622.25;4876493;29;20045;-90
2023/03/14 04:08:58;;;;;;;9.00;4.53;;;;;;;8.96;100.00;98626.22;4868432;29;20032;-89
2023/03/14 04:11:24;;;;;;;15.73;5.28;;;;;;;9.01;100.00;98617.34;4870842;29;20403;-90
2023/03/14 04:13:49;;;;;;;16.42;8.10;;;;;;;9.02;100.00;98627.28;4875292;29;20466;-91
2023/03/14 04:16:18;;;;;;;12.85;4.90;;;;;;;9.01;100.00;98628.53;4875276;29;20044;-86
2023/03/14 04:18:43;;;;;;;16.85;5.13;;;;;;;8.99;100.00;98630.94;4859596;29;20024;-88
2023/03/14 04:21:09;;;;;;;9.13;3.97;;;;;;;9.00;100.00;98626.16;4876796;29;20043;-88
2023/03/14 04:23:34;;;;;;;12.75;5.40;;;;;;;9.05;100.00;98625.69;4878644;29;21324;-89
2023/03/14 04:26:00;;;;;;;11.50;4.47;;;;;;;9.09;100.00;98621.63;4874745;29;20565;-86
2023/03/14 04:28:25;;;;;;;17.70;5.25;;;;;;;9.05;100.00;98628.47;4876015;29;20047;-85
2023/03/14 04:30:51;;;;;;;14.68;4.43;;;;;;;9.05;100.00;98623.69;4872620;29;20033;-86
2023/03/14 04:33:19;;;;;;;14.18;5.88;;;;;;;9.05;100.00;98620.09;4869435;29;20116;-88
2023/03/14 04:35:45;;;;;;;13.98;5.18;;;;;;;9.12;100.00;98606.81;4860939;29;20056;-86
2023/03/14 04:38:12;;;;;;;19.45;5.63;;;;;;;9.08;100.00;98613.66;4876651;29;20036;-88
2023/03/14 04:40:38;;;;;;;13.48;5.55;;;;;;;9.11;100.00;98615.63;4875616;29;20649;-87
2023/03/14 04:43:04;;;;;;;15.10;6.25;;;;;;;9.11;100.00;98615.63;4875964;29;20052;-88
2023/03/14 04:45:29;;;;;;;14.23;4.63;;;;;;;9.10;100.00;98620.41;4856954;29;20035;-89
2023/03/14 04:47:54;;;;;;;23.60;7.10;;;;;;;9.13;100.00;98613.19;4876653;29;20059;-88
2023/03/14 04:50:20;;;;;;;14.90;4.75;;;;;;;9.07;100.00;98596.13;4874884;29;20033;-90
2023/03/14 04:52:45;;;;;;;13.85;4.82;;;;;;;9.05;100.00;98598.56;4858019;29;20040;-90
2023/03/14 04:55:11;;;;;;;18.70;5.25;;;;;;;9.10;100.00;98586.13;4856428;29;20028;-86
2023/03/14 04:57:36;;;;;;;10.70;4.47;;;;;;;9.06;100.00;98597.34;4870377;29;20068;-89
2023/03/14 05:00:06;;;;;;;11.38;4.45;;;;;;;9.09;100.00;98604.09;4859334;29;20584;-87
2023/03/14 05:02:31;;;;;;;20.98;5.32;;;;;;;9.01;100.00;98595.03;4875258;29;20032;-87
2023/03/14 05:04:57;;;;;;;11.23;3.85;;;;;;;9.07;100.00;98593.34;4858577;29;20035;-90
2023/03/14 05:07:22;;;;;;;17.65;4.55;;;;;;;9.09;100.00;98595.72;4853638;29;20493;-88
2023/03/14 05:09:47;;;;;;;21.15;4.28;;;;;;;9.11;100.00;98599.66;4858754;29;20554;-87
2023/03/14 05:12:13;;;;;;;16.90;4.45;;;;;;;9.04;100.00;98594.19;4837232;29;20032;-86
2023/03/14 05:14:39;;;;;;;12.77;4.03;;;;;;;9.02;100.00;98596.59;4853332;29;20037;-89
2023/03/14 05:17:04;;;;;;;13.20;4.38;;;;;;;8.92;100.00;98587.22;4846249;29;20031;-88
2023/03/14 05:19:30;;;;;;;9.43;3.97;;;;;;;8.94;100.00;98595.94;4850024;29;20045;-87
2023/03/14 05:21:55;;;;;;;13.13;4.55;;;;;;;8.94;100.00;98586.78;4868459;29;20052;-87
2023/03/14 05:24:21;;;;;;;14.45;4.00;;;;;;;8.95;100.00;98596.72;4863970;29;20037;-85
2023/03/14 05:26:46;;;;;;;14.65;3.42;;;;;;;8.89;100.00;98581.69;4850293;29;20029;-91
2023/03/14 05:29:12;;;;;;;14.30;3.88;;;;;;;8.92;100.00;98575.25;4861018;29;20104;-89
2023/03/14 05:31:37;;;;;;;12.73;3.85;;;;;;;8.90;100.00;98586.06;4848012;29;20039;-89
2023/03/14 05:34:03;;;;;;;6.95;3.45;;;;;;;8.98;100.00;98583.94;4850833;29;20088;-87
2023/03/14 05:36:28;;;;;;;13.52;4.70;;;;;;;8.93;100.00;98588.00;4853024;29;20064;-91
2023/03/14 05:38:53;;;;;;;14.82;4.20;;;;;;;8.88;100.00;98580.09;4865968;29;20124;-86
2023/03/14 05:41:19;;;;;;;14.00;4.07;;;;;;;8.90;100.00;98586.06;4855238;29;20402;-89
2023/03/14 05:43:44;;;;;;;21.58;5.68;;;;;;;8.90;100.00;98583.25;4867020;29;20040;-89
2023/03/14 05:46:09;;;;;;;13.50;4.90;;;;;;;8.87;100.00;98586.88;4870676;29;20494;-88
2023/03/14 05:48:35;;;;;;;14.65;4.70;;;;;;;8.83;100.00;98588.94;4858801;29;20025;-88
2023/03/14 05:51:00;;;;;;;14.63;4.38;;;;;;;8.79;100.00;98593.78;4874645;29;20849;-88
2023/03/14 05:53:25;;;;;;;11.25;4.22;;;;;;;8.86;100.00;98594.47;4856710;29;21685;-88
2023/03/14 05:55:55;;;;;;;13.93;4.60;;;;;;;8.87;100.00;98592.47;4855124;29;20048;-87
2023/03/14 05:58:23;;;;;;;12.57;4.68;;;;;;;8.78;100.00;98600.59;4874835;29;20040;-86
2023/03/14 06:00:49;;;;;;;11.93;4.00;;;;;;;8.77;100.00;98590.63;4871104;29;21528;-87
2023/03/14 06:03:14;;;;;;;9.68;4.75;;;;;;;8.80;100.00;98590.59;4869400;29;20459;-87
2023/03/14 06:05:40;;;;;;;15.90;4.90;;;;;;;8.85;100.00;98592.09;4861269;29;20033;-88
2023/03/14 06:08:05;;;;;;;14.73;4.57;;;;;;;8.75;100.00;98591.84;4872444;29;20108;-87
2023/03/14 06:10:30;;;;;;;11.73;4.63;;;;;;;8.80;100.00;98595.38;4853433;29;20032;-88
2023/03/14 06:12:56;;;;;;;10.60;4.82;;;;;;;8.79;100.00;98589.00;4859867;29;20037;-86
2023/03/14 06:15:21;;;;;;;14.77;4.85;;;;;;;8.75;100.00;98577.91;4869975;29;20039;-86
2023/03/14 06:17:47;;;;;;;12.73;5.90;;;;;;;8.84;100.00;98576.59;4859013;29;20498;-87
2023/03/14 06:20:13;;;;;;;11.45;6.15;;;;;;;8.79;100.00;98577.03;4871426;29;20124;-86
2023/03/14 06:22:39;;;;;;;11.52;5.13;;;;;;;8.84;100.00;98573.78;4874817;29;20067;-87
2023/03/14 06:25:05;;;;;;;8.55;4.75;;;;;;;8.80;100.00;98575.84;4860015;29;20021;-87
2023/03/14 06:27:30;;;;;;;10.27;4.35;;;;;;;8.82;100.00;98576.22;4854887;29;20029;-86
2023/03/14 06:29:56;;;;;;;13.68;5.93;;;;;;;8.81;100.00;98580.19;4848599;29;20394;-87
2023/03/14 06:32:21;;;;;;;10.20;5.03;;;;;;;8.81;100.00;98583.00;4858013;29;20036;-87
2023/03/14 06:34:46;;;;;;;10.32;4.13;;;;;;;8.76;100.00;98587.06;4870703;29;20120;-87
2023/03/14 06:37:12;;;;;;;10.77;4.57;;;;;;;8.84;100.00;98582.16;4876648;29;20116;-88
2023/03/14 06:39:38;;;;;;;10.65;4.35;;;;;;;8.82;100.00;98588.16;4867667;29;20033;-87
2023/03/14 06:42:04;;;;;;;7.53;4.70;;;;;;;8.83;100.00;98586.16;4859001;29;20538;-88
2023/03/14 06:44:29;;;;;;;9.95;4.38;;;;;;;8.78;100.00;98584.63;4841720;29;20025;-87
2023/03/14 06:46:55;;;;;;;12.10;4.85;;;;;;;8.87;100.00;98589.69;4854556;29;20043;-88
2023/03/14 06:49:20;;;;;;;11.27;4.63;;;;;;;8.83;100.00;98594.53;4867868;29;20034;-88
2023/03/14 06:51:46;;;;;;;21.92;5.55;;;;;;;8.79;100.00;98593.78;4872164;29;20033;-88
2023/03/14 06:54:11;;;;;;;10.30;4.88;;;;;;;8.73;100.00;98677.94;4872041;29;20041;-86
2023/03/14 06:56:37;;;;;;;6.45;3.50;;;;;;;8.54;100.00;98703.69;4869854;29;20037;-86
2023/03/14 06:59:02;;;;;;;4.95;2.45;;;;;;;8.50;100.00;98700.16;4851385;29;20056;-84
2023/03/14 07:01:29;;;;;;;5.43;2.20;;;;;;;8.19;100.00;98707.66;4860974;29;20099;-85
2023/03/14 07:03:55;;;;;;;5.22;2.10;;;;;;;8.35;100.00;98711.44;4875787;29;20044;-85
2023/03/14 07:06:21;;;;;;;4.28;2.00;;;;;;;8.50;100.00;98714.09;4881717;29;20032;-85
2023/03/14 07:08:47;;;;;;;5.60;1.90;;;;;;;8.27;100.00;98720.31;4880619;29;20033;-86
2023/03/14 07:11:12;;;;;;;4.50;1.65;;;;;;;7.87;100.00;98731.84;4869794;29;20072;-87
2023/03/14 07:13:38;;;;;;;3.33;1.50;;;;;;;7.98;100.00;98742.09;4871383;29;20497;-85
2023/03/14 07:16:05;;;;;;;7.65;1.60;;;;;;;7.74;100.00;98753.06;4892067;29;20028;-85
2023/03/14 07:18:31;;;;;;;3.20;1.30;;;;;;;7.94;100.00;98745.69;4894034;29;20032;-86
2023/03/14 07:20:56;;;;;;;3.72;1.40;;;;;;;7.92;100.00;98764.81;4894353;29;20124;-87
2023/03/14 07:23:21;;;;;;;2.88;1.02;;;;;;;7.62;100.00;98762.69;4874999;29;20120;-85
2023/03/14 07:25:47;;;;;;;4.78;1.30;;;;;;;7.63;100.00;98777.41;4876126;29;20068;-86
2023/03/14 07:28:12;;;;;;;6.60;1.50;;;;;;;7.72;100.00;98774.94;4874071;29;20052;-86
2023/03/14 07:30:39;;;;;;;3.88;1.40;;;;;;;7.94;100.00;98787.47;4876245;29;20859;-86
2023/03/14 07:33:04;;;;;;;3.05;1.40;;;;;;;8.09;100.00;98790.16;4877285;29;20032;-85
2023/03/14 07:35:30;;;;;;;2.33;1.38;;;;;;;7.89;100.00;98798.28;4900392;29;20036;-88
2023/03/14 07:37:55;;;;;;;5.05;1.35;;;;;;;7.63;100.00;98805.22;4877975;29;20029;-88
2023/03/14 07:40:20;;;;;;;5.32;2.30;;;;;;;7.82;100.00;98813.06;4896733;29;20169;-89
2023/03/14 07:42:46;;;;;;;7.47;1.50;;;;;;;7.64;100.00;98823.53;4898864;29;20040;-89
2023/03/14 07:45:12;;;;;;;4.97;1.60;;;;;;;7.53;100.00;98827.19;4899028;29;20401;-90
2023/03/14 07:47:37;;;;;;;5.43;1.60;;;;;;;7.62;100.00;98846.22;4880985;29;20039;-87
2023/03/14 07:50:04;;;;;;;4.60;1.58;;;;;;;7.51;100.00;98865.78;4882538;29;20043;-88
2023/03/14 07:52:29;;;;;;;3.80;1.45;;;;;;;7.47;100.00;98875.34;4882904;29;20037;-89
2023/03/14 07:54:55;;;;;;;7.72;2.42;;;;;;;7.22;100.00;98895.72;4898879;29;20025;-88
2023/03/14 07:57:20;;;;;;;6.78;1.35;;;;;;;7.01;100.00;98898.59;4876065;29;20057;-88
2023/03/14 07:59:46;;;;;;;4.35;1.63;;;;;;;7.12;100.00;98904.91;4875418;29;20485;-87
2023/03/14 08:02:12;;;;;;;7.97;2.15;;;;;;;6.79;100.00;98925.66;4878349;29;20036;-88
2023/03/14 08:04:39;;;;;;;6.25;1.17;;;;;;;6.99;100.00;98946.28;4899131;29;20076;-88
2023/03/14 08:07:05;;;;;;;8.57;1.60;;;;;;;6.89;100.00;98936.78;4882360;29;20028;-87
2023/03/14 08:09:30;;;;;;;5.13;1.30;;;;;;;6.94;100.00;98955.03;4890633;29;20065;-87
2023/03/14 08:11:56;;;;;;;12.52;1.88;;;;;;;6.72;100.00;98965.38;4881612;29;20028;-88
2023/03/14 08:14:23;;;;;;;4.28;2.30;;;;;;;6.53;100.00;98974.94;4896413;29;20029;-88
2023/03/14 08:16:49;;;;;;;16.58;1.55;;;;;;;6.56;100.00;99003.94;4882222;29;20032;-89
2023/03/14 08:19:14;;;;;;;3.60;1.00;;;;;;;6.45;100.00;99006.69;4897207;29;20028;-87
2023/03/14 08:21:40;;;;;;;4.28;1.38;;;;;;;6.35;100.00;99018.59;4874795;29;20032;-89
2023/03/14 08:24:06;;;;;;;4.07;1.08;;;;;;;6.24;100.00;99033.28;4886171;29;20028;-88
2023/03/14 08:26:31;;;;;;;5.38;0.88;;;;;;;6.02;100.00;99043.50;4882596;29;20033;-88
2023/03/14 08:28:57;;;;;;;4.28;0.90;;;;;;;5.98;100.00;99053.03;4876378;29;20032;-88
2023/03/14 08:31:22;;;;;;;2.97;0.88;;;;;;;6.20;100.00;99063.03;4887571;29;20032;-88
2023/03/14 08:33:47;;;;;;;8.73;1.60;;;;;;;6.31;100.00;99058.28;4884764;29;20040;-88
2023/03/14 08:36:13;;;;;;;3.55;0.90;;;;;;;6.25;100.00;99084.84;4886234;29;20028;-89
2023/03/14 08:38:38;;;;;;;4.07;0.88;;;;;;;6.51;100.00;99099.59;4884163;29;20047;-87
2023/03/14 08:41:04;;;;;;;3.25;0.70;;;;;;;6.40;100.00;99087.69;4893839;29;20028;-89
2023/03/14 08:43:30;;;;;;;5.35;1.58;;;;;;;6.33;100.00;99115.47;4896671;29;21315;-89
2023/03/14 08:46:05;;;;;;;8.68;1.30;;;;;;;6.29;100.00;99113.44;4879849;29;20044;-90
2023/03/14 08:48:30;;;;;;;3.30;0.55;;;;;;;6.38;100.00;99123.41;4884188;29;20032;-90
2023/03/14 08:51:03;;;;;;;2.50;0.80;;;;;;;6.20;100.00;99140.81;4900745;29;20047;-90
2023/03/14 08:53:28;;;;;;;2.85;0.60;;;;;;;6.35;100.00;99158.34;4897240;29;20032;-89
2023/03/14 08:55:54;;;;;;;6.32;1.00;;;;;;;6.33;100.00;99165.47;4884685;29;20056;-89
2023/03/14 08:58:24;;;;;;;3.20;0.70;;;;;;;6.30;100.00;99178.97;4894532;29;20047;-89
2023/03/14 09:00:50;;;;;;;3.60;1.10;;;;;;;6.36;100.00;99200.81;4895108;29;20036;-90
2023/03/14 09:03:15;;;;;;;3.95;0.85;;;;;;;6.51;100.00;99199.66;4883655;29;20049;-89
2023/03/14 09:05:41;;;;;;;6.15;1.77;;;;;;;6.49;100.00;99202.03;4883287;29;20028;-90
2023/03/14 09:08:10;;;;;;;2.83;0.80;;;;;;;6.58;100.00;99210.00;4886451;29;20545;-88
2023/03/14 09:10:38;;;;;;;2.60;1.00;;;;;;;6.38;100.00;99235.34;4894165;29;20055;-90
2023/03/14 09:13:04;;;;;;;5.45;1.60;;;;;;;6.27;100.00;99251.19;4888791;29;20037;-89
2023/03/14 09:15:29;;;;;;;11.02;1.30;;;;;;;6.36;100.00;99259.16;4894438;29;20024;-91
2023/03/14 09:17:55;;;;;;;6.05;2.13;;;;;;;6.32;100.00;99278.59;4886014;29;20307;-90
2023/03/14 09:20:20;;;;;;;10.50;1.35;;;;;;;6.20;100.00;99267.78;4896514;29;20039;-88
2023/03/14 09:22:46;;;;;;;4.97;1.42;;;;;;;6.58;100.00;99283.13;4897429;29;20061;-91
2023/03/14 09:25:12;;;;;;;8.18;1.50;;;;;;;6.29;100.00;99288.50;4863524;29;20394;-91
2023/03/14 09:27:37;;;;;;;6.20;1.83;;;;;;;6.68;100.00;99304.63;4861755;29;20402;-90
2023/03/14 09:30:04;;;;;;;2.83;1.05;;;;;;;6.53;100.00;99307.69;4857773;29;20032;-91
2023/03/14 09:32:35;;;;;;;6.95;1.30;;;;;;;6.72;100.00;99329.63;4876216;29;20077;-91
2023/03/14 09:35:00;;;;;;;6.35;1.60;;;;;;;6.44;100.00;99321.94;4866586;29;20522;-91
2023/03/14 09:37:26;;;;;;;7.68;1.20;;;;;;;6.59;100.00;99320.84;4864745;29;20062;-90
2023/03/14 09:39:57;;;;;;;20.98;3.65;;;;;;;6.80;100.00;99333.25;4875685;29;20037;-91
2023/03/14 09:42:27;;;;;;;17.98;2.33;;;;;;;6.79;100.00;99331.66;4864858;29;20033;-89
2023/03/14 09:45:02;;;;;;;6.35;2.17;;;;;;;6.87;100.00;99349.97;4879954;29;20033;-91
2023/03/14 09:47:28;;;;;;;5.28;1.45;;;;;;;7.02;100.00;99354.44;4874362;29;20034;-92
2023/03/14 09:50:02;;;;;;;8.77;1.60;;;;;;;6.80;100.00;99361.06;4865127;29;20036;-91
2023/03/14 09:52:35;;;;;;;16.13;3.40;;;;;;;6.81;100.00;99380.16;4866137;29;20151;-87
2023/03/14 09:55:14;;;;;;;8.18;2.45;;;;;;;6.76;100.00;99377.72;4882340;29;20029;-90
2023/03/14 09:57:41;;;;;;;16.65;3.72;;;;;;;6.64;100.00;99387.22;4866773;29;20025;-88
2023/03/14 10:00:16;;;;;;;16.73;3.05;;;;;;;6.78;100.00;99396.81;4869703;29;20043;-91
2023/03/14 10:03:24;;;;;;;13.65;2.35;;;;;;;6.59;100.00;99412.59;4858181;29;20048;-88
2023/03/14 10:05:50;;;;;;;12.85;2.78;;;;;;;6.59;100.00;99400.66;4860059;29;20034;-92
2023/03/14 10:08:16;;;;;;;13.50;3.03;;;;;;;6.72;100.00;99438.91;4874535;29;20039;-91
2023/03/14 10:10:41;;;;;;;18.40;3.83;;;;;;;6.79;100.00;99460.41;4867573;29;20120;-92
2023/03/14 10:13:26;;;;;;;18.58;3.22;;;;;;;6.58;100.00;99471.34;4870262;29;20025;-90
2023/03/14 10:15:55;;;;;;;11.90;3.20;;;;;;;6.59;100.00;99495.97;4884280;29;20029;-90
2023/03/14 10:18:23;;;;;;;18.42;2.80;;;;;;;5.86;100.00;99465.91;4884103;29;20033;-90
2023/03/14 10:21:02;;;;;;;16.30;4.32;;;;;;;6.06;100.00;99468.53;4892792;29;20021;-90
2023/03/14 10:23:29;;;;;;;16.20;3.08;;;;;;;6.14;100.00;99486.06;4883623;29;20021;-91
2023/03/14 10:26:14;;;;;;;14.73;2.83;;;;;;;6.37;100.00;99489.47;4870738;29;20116;-89
2023/03/14 10:28:47;;;;;;;19.63;3.03;;;;;;;6.57;100.00;99503.91;4867510;29;20122;-89
2023/03/14 10:31:12;;;;;;;;;;;;;;;6.56;100.00;99524.56;4883987;29;20417;-90
2023/03/14 10:33:39;;;;;;;18.27;4.03;;;;;;;6.43;100.00;99512.13;4853824;29;19999;-91
2023/03/14 10:36:25;;;;;;;15.30;3.28;;;;;;;6.64;100.00;99540.13;4871384;29;20403;-86
2023/03/14 10:38:58;;;;;;;25.88;4.40;;;;;;;6.71;100.00;99559.66;4868847;29;20128;-91
2023/03/14 10:41:26;;;;;;;21.48;4.32;;;;;;;6.40;100.00;99549.81;4868666;29;20557;-91
2023/03/14 10:43:56;;;;;;;16.77;3.65;;;;;;;6.53;100.00;99586.47;4866361;29;20035;-88
2023/03/14 10:46:25;;;;;;;15.80;4.15;;;;;;;6.38;100.00;99591.09;4870194;29;20255;-92
2023/03/14 10:48:53;;;;;;;17.38;3.08;;;;;;;6.60;100.00;99586.56;4868075;29;20037;-91
2023/03/14 10:51:28;;;;;;;12.82;3.22;;;;;;;6.43;100.00;99582.44;4865897;29;20084;-91
2023/03/14 10:54:26;;;;;;;18.27;3.53;;;;;;;6.56;100.00;99627.44;4867676;29;20037;-88
2023/03/14 10:57:03;;;;;;;18.92;2.78;;;;;;;6.54;100.00;99627.00;4868938;29;20065;-92
2023/03/14 10:59:37;;;;;;;16.48;3.78;;;;;;;6.77;100.00;99614.91;4877395;29;20101;-91
2023/03/14 11:02:33;;;;;;;19.25;3.65;;;;;;;6.89;100.00;99670.25;4863254;29;20032;-90
2023/03/14 11:05:11;;;;;;;20.85;4.57;;;;;;;6.78;100.00;99663.78;4868330;29;20072;-91
2023/03/14 11:07:42;;;;;;;17.85;2.90;;;;;;;6.72;100.00;99661.38;4881287;29;20021;-90
2023/03/14 11:10:18;;;;;;;18.25;4.13;;;;;;;6.74;99.59;99686.00;4865152;29;20481;-91
2023/03/14 11:13:02;;;;;;;15.40;4.00;;;;;;;6.74;100.00;99688.00;4868594;29;20041;-90
2023/03/14 11:15:52;;;;;;;17.83;3.03;;;;;;;6.99;100.00;99702.16;4884484;29;20032;-91
2023/03/14 11:18:20;;;;;;;10.80;2.17;;;;;;;6.91;100.00;99737.44;4866729;29;20116;-91
2023/03/14 11:21:05;;;;;;;17.45;3.13;;;;;;;6.86;100.00;99721.91;4872688;29;20041;-93
2023/03/14 11:24:06;;;;;;;16.17;2.72;;;;;;;6.95;100.00;99743.03;4875917;29;20068;-94
2023/03/14 11:26:36;;;;;;;20.58;4.15;;;;;;;6.87;99.84;99742.16;4841892;29;20449;-92
2023/03/14 11:29:17;;;;;;;13.25;5.35;;;;;;;6.98;99.08;99745.06;4880650;29;20123;-93